createdAt,value
2017-10-11T04:05:02.219Z,99.90
2017-10-11T04:07:29.795Z,99.90
2017-10-11T04:09:57.611Z,99.90
2017-10-11T04:12:25.145Z,99.90
2017-10-11T04:14:52.698Z,99.90
2017-10-11T04:17:20.335Z,99.90
2017-10-11T04:19:47.869Z,99.90
2017-10-11T04:22:16.151Z,99.90
2017-10-11T04:24:44.477Z,99.90
2017-10-11T04:27:12.009Z,99.90
2017-10-11T04:29:56.228Z,99.90
2017-10-11T04:32:23.798Z,99.90
2017-10-11T04:34:52.078Z,99.90
2017-10-11T04:37:20.648Z,99.90
2017-10-11T04:39:48.206Z,99.90
2017-10-11T04:42:15.738Z,99.90
2017-10-11T04:44:43.258Z,99.90
2017-10-11T04:47:10.814Z,99.90
2017-10-11T04:49:38.326Z,99.90
2017-10-11T04:52:05.847Z,99.90
2017-10-11T04:54:33.399Z,99.90
2017-10-11T04:57:00.926Z,99.90
2017-10-11T04:59:28.500Z,99.90
2017-10-11T05:01:56.083Z,99.90
2017-10-11T05:04:23.668Z,99.90
2017-10-11T05:06:51.198Z,99.90
2017-10-11T05:09:18.749Z,99.90
2017-10-11T05:11:47.066Z,99.90
2017-10-11T05:14:14.656Z,99.90
2017-10-11T05:16:42.215Z,99.90
2017-10-11T05:19:09.728Z,99.90
2017-10-11T05:21:37.397Z,99.90
2017-10-11T05:24:04.948Z,99.90
2017-10-11T05:26:32.507Z,99.90
2017-10-11T05:29:00.025Z,99.90
2017-10-11T05:31:27.579Z,99.90
2017-10-11T05:33:55.084Z,99.90
2017-10-11T05:36:22.596Z,99.90
2017-10-11T05:38:50.137Z,99.90
2017-10-11T05:41:17.772Z,99.90
2017-10-11T05:43:46.040Z,99.90
2017-10-11T05:46:13.592Z,99.90
2017-10-11T05:48:41.893Z,99.90
2017-10-11T05:51:09.404Z,99.90
2017-10-11T05:53:36.955Z,99.90
2017-10-11T05:56:04.498Z,99.90
2017-10-11T05:58:31.991Z,99.90
2017-10-11T06:00:59.496Z,99.90
2017-10-11T06:03:27.067Z,99.90
2017-10-11T06:05:54.618Z,99.90
2017-10-11T06:08:22.135Z,99.90
2017-10-11T06:10:49.639Z,99.90
2017-10-11T06:13:17.191Z,99.90
2017-10-11T06:15:44.708Z,99.90
2017-10-11T06:18:12.268Z,99.90
2017-10-11T06:20:39.777Z,99.90
2017-10-11T06:23:07.312Z,99.90
2017-10-11T06:25:34.828Z,99.90
2017-10-11T06:28:02.373Z,99.90
2017-10-11T06:30:29.944Z,99.90
2017-10-11T06:32:57.538Z,99.90
2017-10-11T06:35:25.844Z,99.90
2017-10-11T06:37:53.388Z,99.90
2017-10-11T06:40:21.664Z,99.90
2017-10-11T06:42:49.932Z,99.90
2017-10-11T06:45:18.256Z,99.90
2017-10-11T06:47:45.768Z,99.90
2017-10-11T06:50:14.080Z,99.90
2017-10-11T06:52:41.592Z,99.90
2017-10-11T06:55:09.100Z,99.90
2017-10-11T06:57:36.643Z,99.90
2017-10-11T07:00:05.537Z,99.90
2017-10-11T07:02:33.809Z,99.90
2017-10-11T07:05:02.118Z,99.90
2017-10-11T07:07:29.629Z,99.90
2017-10-11T07:09:57.956Z,99.90
2017-10-11T07:12:25.459Z,99.90
2017-10-11T07:14:52.966Z,99.90
2017-10-11T07:17:20.505Z,99.90
2017-10-11T07:19:48.839Z,99.90
2017-10-11T07:22:16.387Z,99.90
2017-10-11T07:24:43.897Z,99.90
2017-10-11T07:27:12.175Z,99.90
2017-10-11T07:29:39.709Z,99.90
2017-10-11T07:32:07.216Z,99.90
2017-10-11T07:34:34.765Z,99.90
2017-10-11T07:37:02.279Z,99.90
2017-10-11T07:39:29.785Z,99.90
2017-10-11T07:41:57.341Z,99.90
2017-10-11T07:44:25.612Z,99.70
2017-10-11T07:46:53.892Z,99.90
2017-10-11T07:49:22.188Z,99.60
2017-10-11T07:51:49.689Z,99.60
2017-10-11T07:54:17.228Z,99.20
2017-10-11T07:56:44.735Z,98.60
2017-10-11T07:59:12.271Z,97.30
2017-10-11T08:01:39.786Z,98.00
2017-10-11T08:04:07.372Z,97.40
2017-10-11T08:06:34.879Z,96.50
2017-10-11T08:09:03.154Z,98.60
2017-10-11T08:11:31.490Z,97.70
2017-10-11T08:13:58.990Z,97.70
2017-10-11T08:16:26.540Z,98.30
2017-10-11T08:18:54.099Z,95.40
2017-10-11T08:21:21.608Z,95.40
2017-10-11T08:23:49.119Z,95.80
2017-10-11T08:26:16.669Z,95.00
2017-10-11T08:28:44.189Z,94.70
2017-10-11T08:31:11.740Z,94.00
2017-10-11T08:33:39.248Z,93.90
2017-10-11T08:36:06.752Z,94.20
2017-10-11T08:38:34.302Z,94.10
2017-10-11T08:41:02.579Z,92.40
2017-10-11T08:43:30.844Z,91.70
2017-10-11T08:45:59.172Z,90.00
2017-10-11T08:48:26.921Z,89.70
2017-10-11T08:50:54.440Z,91.90
2017-10-11T08:53:21.979Z,90.20
2017-10-11T08:55:49.529Z,91.00
2017-10-11T08:58:17.038Z,91.60
2017-10-11T09:00:45.439Z,91.30
2017-10-11T09:03:13.103Z,91.30
2017-10-11T09:05:40.656Z,92.00
2017-10-11T09:08:08.231Z,92.10
2017-10-11T09:10:35.737Z,91.90
2017-10-11T09:13:03.247Z,91.30
2017-10-11T09:15:30.793Z,90.70
2017-10-11T09:17:58.308Z,90.70
2017-10-11T09:20:25.853Z,90.00
2017-10-11T09:22:53.398Z,90.50
2017-10-11T09:25:20.912Z,89.60
2017-10-11T09:27:49.223Z,89.10
2017-10-11T09:30:16.791Z,89.00
2017-10-11T09:32:44.328Z,87.70
2017-10-11T09:35:12.643Z,89.30
2017-10-11T09:37:40.249Z,89.40
2017-10-11T09:40:07.944Z,90.90
2017-10-11T09:42:35.461Z,87.90
2017-10-11T09:45:03.084Z,90.50
2017-10-11T09:47:30.610Z,85.90
2017-10-11T09:49:58.143Z,84.40
2017-10-11T09:52:25.812Z,88.50
2017-10-11T09:54:53.484Z,84.70
2017-10-11T09:57:21.805Z,81.30
2017-10-11T09:59:49.311Z,80.50
2017-10-11T10:02:16.839Z,80.60
2017-10-11T10:04:44.581Z,81.20
2017-10-11T10:07:12.087Z,79.20
2017-10-11T10:09:39.595Z,79.00
2017-10-11T10:12:07.269Z,79.20
2017-10-11T10:14:34.808Z,80.00
2017-10-11T10:17:03.108Z,77.00
2017-10-11T10:19:30.633Z,77.00
2017-10-11T10:21:58.903Z,77.40
2017-10-11T10:24:27.271Z,75.10
2017-10-11T10:26:54.856Z,74.70
2017-10-11T10:29:23.123Z,73.90
2017-10-11T10:31:51.660Z,73.20
2017-10-11T10:34:19.176Z,73.10
2017-10-11T10:36:47.484Z,73.20
2017-10-11T10:39:15.033Z,73.30
2017-10-11T10:41:42.544Z,73.20
2017-10-11T10:44:10.108Z,72.20
2017-10-11T10:46:37.623Z,72.00
2017-10-11T10:49:05.143Z,67.30
2017-10-11T10:51:33.463Z,70.50
2017-10-11T10:54:00.976Z,70.40
2017-10-11T10:56:28.483Z,69.60
2017-10-11T10:58:56.041Z,69.60
2017-10-11T11:01:23.594Z,67.20
2017-10-11T11:03:51.132Z,67.00
2017-10-11T11:06:19.506Z,68.30
2017-10-11T11:08:47.817Z,67.30
2017-10-11T11:11:15.340Z,67.30
2017-10-11T11:13:43.663Z,71.10
2017-10-11T11:16:11.191Z,70.50
2017-10-11T11:18:39.463Z,66.10
2017-10-11T11:21:22.363Z,69.00
2017-10-11T11:26:51.106Z,68.80
2017-10-11T11:32:36.032Z,65.70
2017-10-11T11:35:03.581Z,64.50
2017-10-11T11:37:31.128Z,66.00
2017-10-11T11:39:58.716Z,63.70
2017-10-11T11:42:27.033Z,64.40
2017-10-11T11:44:54.616Z,64.20
2017-10-11T11:47:22.152Z,61.90
2017-10-11T11:49:49.674Z,59.40
2017-10-11T11:52:17.236Z,59.20
2017-10-11T11:54:45.532Z,57.20
2017-10-11T11:57:13.061Z,57.20
2017-10-11T11:59:41.412Z,56.80
2017-10-11T12:02:08.945Z,56.70
2017-10-11T12:04:36.517Z,57.50
2017-10-11T12:07:04.114Z,55.50
2017-10-11T12:09:32.415Z,57.90
2017-10-11T12:11:59.940Z,57.80
2017-10-11T12:14:27.508Z,57.40
2017-10-11T12:16:55.081Z,57.70
2017-10-11T12:19:22.648Z,58.20
2017-10-11T12:21:50.185Z,57.40
2017-10-11T12:24:18.538Z,58.20
2017-10-11T12:26:46.067Z,58.10
2017-10-11T12:29:13.595Z,57.70
2017-10-11T12:31:41.174Z,56.30
2017-10-11T12:34:08.702Z,57.60
2017-10-11T12:36:36.230Z,57.30
2017-10-11T12:39:03.800Z,59.90
2017-10-11T12:41:32.131Z,59.80
2017-10-11T12:43:59.749Z,59.70
2017-10-11T12:46:28.076Z,62.30
2017-10-11T12:48:55.597Z,62.30
2017-10-11T12:51:23.148Z,63.10
2017-10-11T12:53:50.736Z,62.30
2017-10-11T12:56:18.259Z,61.10
2017-10-11T12:58:45.776Z,63.20
2017-10-11T13:01:13.331Z,64.40
2017-10-11T13:03:40.877Z,63.90
2017-10-11T13:06:08.395Z,65.70
2017-10-11T13:08:35.940Z,65.80
2017-10-11T13:11:03.517Z,67.30
2017-10-11T13:13:31.031Z,66.30
2017-10-11T13:15:58.609Z,65.60
2017-10-11T13:18:26.911Z,69.00
2017-10-11T13:20:54.431Z,68.90
2017-10-11T13:23:22.735Z,69.30
2017-10-11T13:25:50.272Z,69.30
2017-10-11T13:28:18.601Z,68.90
2017-10-11T13:30:46.148Z,68.80
2017-10-11T13:33:13.728Z,69.60
2017-10-11T13:35:41.290Z,69.10
2017-10-11T13:38:08.812Z,71.10
2017-10-11T13:40:36.397Z,70.60
2017-10-11T13:43:03.919Z,68.70
2017-10-11T13:45:34.895Z,72.20
2017-10-11T13:48:05.186Z,71.10
2017-10-11T13:50:32.743Z,71.10
2017-10-11T13:53:00.266Z,70.20
2017-10-11T13:55:27.782Z,69.00
2017-10-11T13:57:56.658Z,69.20
2017-10-11T14:00:24.181Z,72.70
2017-10-11T14:02:52.468Z,70.70
2017-10-11T14:05:20.017Z,70.70
2017-10-11T14:07:48.319Z,72.30
2017-10-11T14:10:15.877Z,72.20
2017-10-11T14:12:43.421Z,75.20
2017-10-11T14:15:10.968Z,74.50
2017-10-11T14:17:38.532Z,74.40
2017-10-11T14:20:06.818Z,74.70
2017-10-11T14:22:34.335Z,74.70
2017-10-11T14:25:01.914Z,76.00
2017-10-11T14:27:30.196Z,75.50
2017-10-11T14:29:57.748Z,76.20
2017-10-11T14:32:25.289Z,75.40
2017-10-11T14:34:53.594Z,74.20
2017-10-11T14:37:21.173Z,74.00
2017-10-11T14:39:48.707Z,75.30
2017-10-11T14:42:16.276Z,75.90
2017-10-11T14:44:43.861Z,76.20
2017-10-11T14:47:11.412Z,77.30
2017-10-11T14:49:39.440Z,77.20
2017-10-11T14:52:07.728Z,77.10
2017-10-11T14:54:35.278Z,76.50
2017-10-11T14:57:03.119Z,78.40
2017-10-11T14:59:30.656Z,79.70
2017-10-11T15:01:58.171Z,78.70
2017-10-11T15:04:25.721Z,78.80
2017-10-11T15:06:53.255Z,78.10
2017-10-11T15:09:21.558Z,79.60
2017-10-11T15:11:49.135Z,79.60
2017-10-11T15:14:16.696Z,79.90
2017-10-11T15:16:44.212Z,76.70
2017-10-11T15:19:12.541Z,77.20
2017-10-11T15:21:40.096Z,77.00
2017-10-11T15:24:07.646Z,78.50
2017-10-11T15:26:35.179Z,79.90
2017-10-11T15:29:02.848Z,81.00
2017-10-11T15:31:30.367Z,80.70
2017-10-11T15:33:57.916Z,81.10
2017-10-11T15:36:25.448Z,83.50
2017-10-11T15:38:53.036Z,87.80
2017-10-11T15:41:20.584Z,90.40
2017-10-11T15:43:48.137Z,91.10
2017-10-11T15:46:15.757Z,91.90
2017-10-11T15:48:43.280Z,92.70
2017-10-11T15:51:11.590Z,93.80
2017-10-11T15:53:39.176Z,93.80
2017-10-11T15:56:06.696Z,93.80
2017-10-11T15:58:34.255Z,94.40
2017-10-11T16:01:01.826Z,95.20
2017-10-11T16:03:29.441Z,95.30
2017-10-11T16:05:56.976Z,95.70
2017-10-11T16:08:24.520Z,95.40
2017-10-11T16:10:52.126Z,96.30
2017-10-11T16:13:20.445Z,97.00
2017-10-11T16:15:48.246Z,97.00
2017-10-11T16:18:15.844Z,97.70
2017-10-11T16:20:43.390Z,98.00
2017-10-11T16:23:11.696Z,97.70
2017-10-11T16:25:39.296Z,97.70
2017-10-11T16:28:07.656Z,98.40
2017-10-11T16:30:35.246Z,98.40
2017-10-11T16:33:02.863Z,98.80
2017-10-11T16:35:30.419Z,99.00
2017-10-11T16:37:58.051Z,99.20
2017-10-11T16:40:25.668Z,99.60
2017-10-11T16:42:53.228Z,99.90
2017-10-11T16:45:20.821Z,99.90
2017-10-11T16:47:48.408Z,99.90
2017-10-11T16:50:16.014Z,99.90
2017-10-11T16:52:43.616Z,99.90
2017-10-11T16:55:11.155Z,99.90
2017-10-11T16:57:39.436Z,99.90
2017-10-11T17:00:07.724Z,99.90
2017-10-11T17:02:35.269Z,99.90
2017-10-11T17:05:02.825Z,99.90
2017-10-11T17:07:30.436Z,99.90
2017-10-11T17:09:58.040Z,99.90
2017-10-11T17:12:25.608Z,99.90
2017-10-11T17:14:53.160Z,99.90
2017-10-11T17:17:20.701Z,99.90
2017-10-11T17:19:49.095Z,99.90
2017-10-11T17:22:16.632Z,99.90
2017-10-11T17:24:44.935Z,99.90
2017-10-11T17:27:12.505Z,99.90
2017-10-11T17:29:40.807Z,99.90
2017-10-11T17:32:08.352Z,99.90
2017-10-11T17:34:35.924Z,99.90
2017-10-11T17:37:03.496Z,99.90
2017-10-11T17:39:31.328Z,99.90
2017-10-11T17:41:58.887Z,99.90
2017-10-11T17:44:26.428Z,99.90
2017-10-11T17:46:54.235Z,99.90
2017-10-11T17:49:22.644Z,99.90
2017-10-11T17:51:51.027Z,99.90
2017-10-11T17:54:18.643Z,99.90
2017-10-11T17:56:46.168Z,99.90
2017-10-11T17:59:13.742Z,99.90
2017-10-11T18:01:41.379Z,99.90
2017-10-11T18:04:08.933Z,99.90
2017-10-11T18:06:36.494Z,99.90
2017-10-11T18:09:04.098Z,99.90
2017-10-11T18:11:31.664Z,99.90
2017-10-11T18:13:59.228Z,99.90
2017-10-11T18:16:26.817Z,99.90
2017-10-11T18:18:55.145Z,99.90
2017-10-11T18:21:22.751Z,99.90
2017-10-11T18:23:50.289Z,99.90
2017-10-11T18:26:17.835Z,99.90
2017-10-11T18:28:45.411Z,99.90
2017-10-11T18:31:13.787Z,99.90
2017-10-11T18:33:42.130Z,99.90
2017-10-11T18:36:09.689Z,99.90
2017-10-11T18:38:37.276Z,99.90
2017-10-11T18:41:04.829Z,99.90
2017-10-11T18:43:32.378Z,99.90
2017-10-11T18:46:00.069Z,99.90
2017-10-11T18:48:27.613Z,99.90
2017-10-11T18:50:55.933Z,99.90
2017-10-11T18:53:23.569Z,99.90
2017-10-11T18:55:51.100Z,99.90
2017-10-11T18:58:18.653Z,99.90
2017-10-11T19:00:46.337Z,99.90
2017-10-11T19:03:14.713Z,99.90
2017-10-11T19:05:43.136Z,99.90
2017-10-11T19:08:10.720Z,99.90
2017-10-11T19:10:38.278Z,99.90
2017-10-11T19:13:05.869Z,99.90
2017-10-11T19:15:33.511Z,99.90
2017-10-11T19:18:01.153Z,99.90
2017-10-11T19:20:28.745Z,99.90
2017-10-11T19:22:56.327Z,99.90
2017-10-11T19:25:23.911Z,99.90
2017-10-11T19:27:51.480Z,99.90
2017-10-11T19:30:19.044Z,99.90
2017-10-11T19:32:46.580Z,99.90
2017-10-11T19:35:14.135Z,99.90
2017-10-11T19:37:41.723Z,99.90
2017-10-11T19:40:09.297Z,99.90
2017-10-11T19:42:36.932Z,99.90
2017-10-11T19:45:04.485Z,99.90
2017-10-11T19:47:32.093Z,99.90
2017-10-11T19:50:00.412Z,99.90
2017-10-11T19:52:27.972Z,99.90
2017-10-11T19:54:55.595Z,99.90
2017-10-11T19:57:23.906Z,99.90
2017-10-11T19:59:51.465Z,99.90
2017-10-11T20:02:19.101Z,99.90
2017-10-11T20:04:46.653Z,99.90
2017-10-11T20:07:14.915Z,99.90
2017-10-11T20:09:42.484Z,99.90
2017-10-11T20:12:10.055Z,99.90
2017-10-11T20:14:37.685Z,99.90
2017-10-11T20:17:06.199Z,99.90
2017-10-11T20:19:33.773Z,99.90
2017-10-11T20:22:01.367Z,99.90
2017-10-11T20:24:28.929Z,99.90
2017-10-11T20:26:56.534Z,99.90
2017-10-11T20:29:24.186Z,99.90
2017-10-11T20:31:51.780Z,99.90
2017-10-11T20:34:21.893Z,99.90
2017-10-11T20:36:49.444Z,99.90
2017-10-11T20:39:17.885Z,99.90
2017-10-11T20:41:45.440Z,99.90
2017-10-11T20:44:13.007Z,99.90
2017-10-11T20:46:40.603Z,99.90
2017-10-11T20:49:08.131Z,99.90
2017-10-11T20:51:35.709Z,99.90
2017-10-11T20:54:03.353Z,99.90
2017-10-11T20:56:30.893Z,99.90
2017-10-11T20:58:58.524Z,99.90
2017-10-11T21:01:26.125Z,99.90
2017-10-11T21:03:53.735Z,99.90
2017-10-11T21:06:21.285Z,99.90
2017-10-11T21:08:48.875Z,99.90
2017-10-11T21:11:16.450Z,99.90
2017-10-11T21:13:44.041Z,99.90
2017-10-11T21:16:11.616Z,99.90
2017-10-11T21:18:39.189Z,99.90
2017-10-11T21:21:06.771Z,99.90
2017-10-11T21:23:35.072Z,99.90
2017-10-11T21:26:02.640Z,99.90
2017-10-11T21:28:30.210Z,99.90
2017-10-11T21:30:57.736Z,99.90
2017-10-11T21:33:25.320Z,99.90
2017-10-11T21:35:52.876Z,99.90
2017-10-11T21:38:20.458Z,99.90
2017-10-11T21:40:48.009Z,99.90
2017-10-11T21:43:15.540Z,99.90
2017-10-11T21:45:43.148Z,99.90
2017-10-11T21:48:10.718Z,99.90
2017-10-11T21:50:38.277Z,99.90
2017-10-11T21:53:05.837Z,99.70
